Southside Place, Texas
Current Conditions -  °F | °C
As of 10:55 AM on Friday 28 Nov 2014 (Local Time) from KMCJ Reporting Station
Clear Clear  
Wind Chill: 66°   Ceiling: Unl
Heat Index: 66°   Visibility: 10mi
Dew Point: 52°   Wind: 10mph
Humidity: 60%   Direction: 150°SSE
Pressure: 30.28"   Gusts: NA
Location:  29.7181°N, 95.4241°W
Report Text: KMCJ 281655Z AUTO 15009KT 10SM CLR 19/11 A3028 RMK AO1
Loading
Personal Weather Stations






























Interactive Weather Map New forecast layout! Learn more

10-Day Weather Forecast

Advertisements
Track Severe Weather on mobile